NATURA VA

 INFORMACIÓN METAR y TAF
METAR FOR LSZB
ADDS - METARS form results

(2236 UTC 17 June 2019)
Data provider http://aviationweather.gov/metar/data/
 
METAR text: LSZB 172220Z AUTO VRB01KT CAVOK 14/14 Q1017
Conditions at: LSZB (BERN/BELP , CH) observed 2220 UTC 17 June 2019
Temperature: 14.0°C (57°F)
Dewpoint: 14.0°C (57°F) [RH = 100%]
Pressure (altimeter): 30.03 inches Hg (1017.0 mb)
Winds: variable direction winds at 1 MPH (1 knots; 0.5 m/s)
Visibility: 6 or more miles (10+ km)
Ceiling: ceiling and visibility are OK
Clouds: unknown
Weather: no significant weather observed at this time

METAR text: LSZB 172150Z AUTO VRB01KT CAVOK 15/15 Q1017
Conditions at: LSZB (BERN/BELP , CH) observed 2150 UTC 17 June 2019
Temperature: 15.0°C (59°F)
Dewpoint: 15.0°C (59°F) [RH = 100%]
Pressure (altimeter): 30.03 inches Hg (1017.0 mb)
Winds: variable direction winds at 1 MPH (1 knots; 0.5 m/s)
Visibility: 6 or more miles (10+ km)
Ceiling: ceiling and visibility are OK
Clouds: unknown
Weather: no significant weather observed at this time

Forecast for: LSZB (BERN/BELP , CH)
Text: TAF LSZB 171425Z 1715/1724 VRB03KT CAVOK
Forecast period: 1500 UTC 17 June 2019 to 0000 UTC 18 June 2019
Forecast type: FROM: standard forecast or significant change
Winds: variable direction winds at 3 MPH (3 knots; 1.5 m/s)
Visibility: 6 or more miles 10+ km)
Ceiling: unknown
Clouds: missing
Weather: NSW  (no significant weather)

 MAPA DE AEROPUERTO

 INFORMACIÓN DE PISTA
Pista 14 Longitud 4954 ft Ancho 98 ft
Elevación 1668 ft Umbral desplazado 656 ft Rumbo de pista 140
Pista 32 Longitud 4954 ft Ancho 98 ft
Elevación 1674 ft Umbral desplazado 360 ft Rumbo de pista 320
Pista 14L Longitud 2133 ft Ancho 98 ft
Elevación 0 ft Umbral desplazado 0 ft Rumbo de pista 140
Pista 32R Longitud 2133 ft Ancho 98 ft
Elevación 0 ft Umbral desplazado 0 ft Rumbo de pista 320
Pista 14R Longitud 2125 ft Ancho 98 ft
Elevación 0 ft Umbral desplazado 0 ft Rumbo de pista 140
Pista 32L Longitud 2125 ft Ancho 98 ft
Elevación 0 ft Umbral desplazado 0 ft Rumbo de pista 320

 FRECUANCIAS DEL AEROPUERTO
Tipo A/D Nombre APP/DEP Frecuencia 127.325 MHZ
Tipo ATIS Nombre ATIS Frecuencia 125.125 MHZ
Tipo MISC Nombre GLIDER Frecuencia 123.4 MHZ
Tipo OPS Nombre ALPAR Frecuencia 135.75 MHZ
Tipo TWR Nombre TWR Frecuencia 121.025 MHZ

 RADIO AYUDAS DEL AEROPUERTO
Tipo NDB Nombre Bern Frecuencia 335 KHZ
Tipo NDB Nombre Muri Frecuencia 312 KHZ
Tipo NDB Nombre Schupberg Frecuencia 357 KHZ



Powered by Virtual Airlines Manager [v2.6.2]